Observations for DINARD PLEURTUIT, France (LFRD)

LFRD 241000Z AUTO 22013KT 6000 SCT008 OVC014 10/09 Q1017
LFRD 240930Z AUTO 22014KT 9999 BKN010/// OVC016/// 10/09 Q1018  
LFRD 240900Z AUTO 22014KT 9999 FEW015 SCT020 OVC026 09/09 Q1018 
LFRD 240830Z AUTO 22012KT 9999 -DZ SCT010 SCT015 OVC026 09/08 Q1018 
LFRD 240800Z AUTO 21013KT 9999 BKN006 OVC025 08/08 Q1018
LFRD 240730Z AUTO 20014KT 4200 -RA BR BKN006 BKN012 OVC029 08/07 Q1018  
LFRD 240700Z AUTO 20015KT 4700 -RA BR FEW008 BKN033 OVC044 08/07 Q1018  
LFRD 240630Z AUTO 19016KT 9999 -RA OVC033 07/06 Q1018   
LFRD 240600Z AUTO 20013KT 9000 -RA OVC037 07/06 Q1019   
LFRD 240530Z AUTO 20013KT 9999 -RA BKN041 OVC047 07/05 Q1019
LFRD 240500Z AUTO 19014KT 9999 -DZ NSC 07/05 Q1020  
LFRD 240430Z AUTO 19013KT 9999 -RA NSC 07/04 Q1020  
LFRD 240400Z AUTO 19013KT 9999 -RA NSC 07/04 Q1021  
LFRD 240330Z AUTO 20011KT 9999 -RADZ BKN033 OVC068 07/04 Q1022  
LFRD 240300Z AUTO 20011KT 9999 -RADZ BKN035 BKN047 OVC074 07/04 Q1022   
LFRD 240230Z AUTO 20011KT 9999 BKN044 OVC058 06/04 Q1023
LFRD 240200Z AUTO 21010KT 9999 BKN048 OVC082 06/03 Q1023
LFRD 240130Z AUTO 20011KT 9999 FEW049 SCT082 BKN100 06/03 Q1023 
LFRD 240100Z AUTO 19011KT CAVOK 06/03 Q1023 
LFRD 240030Z AUTO 20010KT CAVOK 06/03 Q1024 
LFRD 240000Z AUTO 19011KT 9999 FEW049 OVC120 06/03 Q1024
LFRD 232330Z AUTO 19009KT CAVOK 06/03 Q1024 
LFRD 232300Z AUTO 20008KT CAVOK 06/03 Q1025 
LFRD 232230Z AUTO 20007KT CAVOK 06/03 Q1025 
LFRD 232200Z AUTO 20006KT CAVOK 06/03 Q1025 
LFRD 232130Z AUTO 20007KT CAVOK 06/03 Q1025 
LFRD 232100Z AUTO 20007KT CAVOK 06/03 Q1025 
LFRD 232030Z AUTO 21005KT CAVOK 06/03 Q1025 
LFRD 232000Z AUTO 19006KT CAVOK 05/03 Q1025 
LFRD 231930Z AUTO 18006KT CAVOK 05/03 Q1026 
LFRD 231900Z AUTO 19006KT CAVOK 05/02 Q1026 
LFRD 231830Z AUTO 19006KT CAVOK 05/02 Q1026 
LFRD 231800Z AUTO 19005KT CAVOK 05/02 Q1026 
LFRD 231730Z AUTO 19005KT CAVOK 06/02 Q1026 
LFRD 231700Z AUTO 19004KT CAVOK 06/02 Q1025 
LFRD 231630Z AUTO 22003KT CAVOK 07/03 Q1026 
LFRD 231600Z AUTO 20004KT CAVOK 08/02 Q1025 
LFRD 231530Z AUTO 19004KT 9999 FEW031 SCT190 09/02 Q1025
LFRD 231500Z AUTO 19004KT CAVOK 10/02 Q1025 
LFRD 231430Z AUTO 18003KT 140V230 CAVOK 10/02 Q1025 
LFRD 231400Z AUTO 20004KT 160V230 CAVOK 10/01 Q1025 
LFRD 231330Z AUTO 16003KT 100V200 CAVOK 10/02 Q1025 
LFRD 231300Z AUTO VRB02KT CAVOK 10/02 Q1025 
LFRD 231230Z AUTO VRB02KT CAVOK 10/02 Q1026 
LFRD 231200Z AUTO VRB03KT CAVOK 09/02 Q1026 
LFRD 231130Z AUTO 10004KT 070V130 CAVOK 09/03 Q1026 
LFRD 231100Z AUTO VRB03KT CAVOK 09/05 Q1026 
LFRD 231030Z AUTO 10004KT CAVOK 08/04 Q1026 
LFRD 231000Z AUTO 12003KT 9999 NCD 08/04 Q1026  
LFRD 230930Z AUTO 11004KT 9999 NCD 07/04 Q1026